KDRT

Del Rio International Airport

Del Rio, Texas, USA
KDRT 212338Z 2200/2224 13013G23KT P6SM FEW250 FM220200 11012KT P6SM SCT250 FM221100 10010KT P6SM BKN015 FM221400 11008KT P6SM OVC007 FM221800 32010KT P6SM SCT010 BKN020 FM222000 33012G22KT P6SM BKN200
Issued Valid From Valid To
Jan-21 @ 23:38 UTC
(32 minutes ago)
Jan-22 @ 00:00 UTC
(10 minutes ago)
Jan-23 @ 00:00 UTC
(in 24 hours)
Jan-22 @ 00:00 to Jan-22 @ 02:00
KDRT 212338Z 2200/2224 13013G23KT P6SM FEW250
Wind Visibility Clouds
130° at 13 knots
 Gusting to 23 knots
Greater than 6 miles
  • Few at 25,000' AGL
From Jan-22 @ 02:00 to Jan-22 @ 11:00
FM220200 11012KT P6SM SCT250
Wind Visibility Clouds
110° at 12 knots Greater than 6 miles
  • Scattered at 25,000' AGL
From Jan-22 @ 11:00 to Jan-22 @ 14:00
FM221100 10010KT P6SM BKN015
Wind Visibility Clouds
100° at 10 knots Greater than 6 miles
  • Broken at 1,500' AGL
From Jan-22 @ 14:00 to Jan-22 @ 18:00
FM221400 11008KT P6SM OVC007
Wind Visibility Clouds
110° at 8 knots Greater than 6 miles
  • Overcast at 700' AGL
From Jan-22 @ 18:00 to Jan-22 @ 20:00
FM221800 32010KT P6SM SCT010 BKN020
Wind Visibility Clouds
320° at 10 knots Greater than 6 miles
  • Scattered at 1,000' AGL
  • Broken at 2,000' AGL
From Jan-22 @ 20:00 to Jan-23 @ 00:00
FM222000 33012G22KT P6SM BKN200
Wind Visibility Clouds
330° at 12 knots
 Gusting to 22 knots
Greater than 6 miles
  • Broken at 20,000' AGL
KDRT 212338Z 2200/2224 13013G23KT P6SM FEW250 FM220200 11012KT P6SM SCT250 FM221100 10010KT P6SM BKN015 FM221400 11008KT P6SM OVC007 FM221800 32010KT P6SM SCT010 BKN020 FM222000 33012G22KT P6SM BKN200
Issued Jan-21 @ 23:38 UTC
(32 minutes ago)
Valid From Jan-22 @ 00:00 UTC
(10 minutes ago)
Valid To Jan-23 @ 00:00 UTC
(in 24 hours)
Jan-22 @ 00:00 - Jan-22 @ 02:00
Wind Visibility
130° at 13 knots
 Gusting to 23 knots
Greater than 6 miles
Clouds
  • Few at 25,000' AGL
From Jan-22 @ 02:00 - Jan-22 @ 11:00
Wind Visibility
110° at 12 knots Greater than 6 miles
Clouds
  • Scattered at 25,000' AGL
From Jan-22 @ 11:00 - Jan-22 @ 14:00
Wind Visibility
100° at 10 knots Greater than 6 miles
Clouds
  • Broken at 1,500' AGL
From Jan-22 @ 14:00 - Jan-22 @ 18:00
Wind Visibility
110° at 8 knots Greater than 6 miles
Clouds
  • Overcast at 700' AGL
From Jan-22 @ 18:00 - Jan-22 @ 20:00
Wind Visibility
320° at 10 knots Greater than 6 miles
Clouds
  • Scattered at 1,000' AGL
  • Broken at 2,000' AGL
From Jan-22 @ 20:00 - Jan-23 @ 00:00
Wind Visibility
330° at 12 knots
 Gusting to 22 knots
Greater than 6 miles
Clouds
  • Broken at 20,000' AGL